sensor_id;sensor_type;location;lat;lon;timestamp;P1;durP1;ratioP1;P2;durP2;ratioP2
15194;SDS011;7698;42.478;23.756;2022-11-15T00:00:11;36.13;;;28.57;;
15194;SDS011;7698;42.478;23.756;2022-11-15T00:02:38;39.47;;;29.97;;
15194;SDS011;7698;42.478;23.756;2022-11-15T00:05:04;44.67;;;31.52;;
15194;SDS011;7698;42.478;23.756;2022-11-15T00:07:31;57.63;;;33.47;;
15194;SDS011;7698;42.478;23.756;2022-11-15T00:09:59;66.93;;;36.87;;
15194;SDS011;7698;42.478;23.756;2022-11-15T00:12:26;42.00;;;33.93;;
15194;SDS011;7698;42.478;23.756;2022-11-15T00:14:53;34.73;;;25.83;;
15194;SDS011;7698;42.478;23.756;2022-11-15T00:17:19;54.73;;;32.03;;
15194;SDS011;7698;42.478;23.756;2022-11-15T00:19:46;89.97;;;42.50;;
15194;SDS011;7698;42.478;23.756;2022-11-15T00:22:12;71.73;;;37.37;;
15194;SDS011;7698;42.478;23.756;2022-11-15T00:24:39;90.33;;;47.17;;
15194;SDS011;7698;42.478;23.756;2022-11-15T00:27:07;48.87;;;36.17;;
15194;SDS011;7698;42.478;23.756;2022-11-15T00:29:33;59.37;;;39.27;;
15194;SDS011;7698;42.478;23.756;2022-11-15T00:32:02;55.28;;;35.17;;
15194;SDS011;7698;42.478;23.756;2022-11-15T00:34:29;45.07;;;33.67;;
15194;SDS011;7698;42.478;23.756;2022-11-15T00:36:55;104.68;;;38.55;;
15194;SDS011;7698;42.478;23.756;2022-11-15T00:39:22;55.47;;;34.27;;
15194;SDS011;7698;42.478;23.756;2022-11-15T00:41:48;50.27;;;36.10;;
15194;SDS011;7698;42.478;23.756;2022-11-15T00:44:16;46.77;;;32.47;;
15194;SDS011;7698;42.478;23.756;2022-11-15T00:46:43;32.97;;;28.33;;
15194;SDS011;7698;42.478;23.756;2022-11-15T00:49:09;36.37;;;29.97;;
15194;SDS011;7698;42.478;23.756;2022-11-15T00:51:36;65.93;;;34.47;;
15194;SDS011;7698;42.478;23.756;2022-11-15T00:54:03;30.42;;;25.27;;
15194;SDS011;7698;42.478;23.756;2022-11-15T00:56:29;27.77;;;22.77;;
15194;SDS011;7698;42.478;23.756;2022-11-15T00:58:56;25.45;;;21.42;;
15194;SDS011;7698;42.478;23.756;2022-11-15T01:01:24;32.35;;;24.58;;
15194;SDS011;7698;42.478;23.756;2022-11-15T01:03:50;28.45;;;22.90;;
15194;SDS011;7698;42.478;23.756;2022-11-15T01:06:17;34.30;;;26.38;;
15194;SDS011;7698;42.478;23.756;2022-11-15T01:08:43;32.17;;;26.45;;
15194;SDS011;7698;42.478;23.756;2022-11-15T01:11:11;40.67;;;30.95;;
15194;SDS011;7698;42.478;23.756;2022-11-15T01:13:38;61.53;;;49.50;;
15194;SDS011;7698;42.478;23.756;2022-11-15T01:16:08;73.85;;;63.05;;
15194;SDS011;7698;42.478;23.756;2022-11-15T01:18:36;78.05;;;63.72;;
15194;SDS011;7698;42.478;23.756;2022-11-15T01:21:07;84.68;;;68.00;;
15194;SDS011;7698;42.478;23.756;2022-11-15T01:23:33;102.82;;;76.93;;
15194;SDS011;7698;42.478;23.756;2022-11-15T01:26:00;77.18;;;61.30;;
15194;SDS011;7698;42.478;23.756;2022-11-15T01:28:29;67.85;;;55.30;;
15194;SDS011;7698;42.478;23.756;2022-11-15T01:30:57;68.18;;;55.13;;
15194;SDS011;7698;42.478;23.756;2022-11-15T01:33:23;77.22;;;53.97;;
15194;SDS011;7698;42.478;23.756;2022-11-15T01:35:51;63.65;;;51.75;;
15194;SDS011;7698;42.478;23.756;2022-11-15T01:38:18;114.20;;;63.50;;
15194;SDS011;7698;42.478;23.756;2022-11-15T01:40:44;91.82;;;57.88;;
15194;SDS011;7698;42.478;23.756;2022-11-15T01:43:21;79.38;;;53.55;;
15194;SDS011;7698;42.478;23.756;2022-11-15T01:45:49;77.03;;;55.60;;
15194;SDS011;7698;42.478;23.756;2022-11-15T01:48:17;82.88;;;55.67;;
15194;SDS011;7698;42.478;23.756;2022-11-15T01:50:44;89.32;;;53.53;;
15194;SDS011;7698;42.478;23.756;2022-11-15T01:53:12;81.90;;;55.22;;
15194;SDS011;7698;42.478;23.756;2022-11-15T01:55:38;81.83;;;52.83;;
15194;SDS011;7698;42.478;23.756;2022-11-15T01:58:05;61.63;;;46.83;;
15194;SDS011;7698;42.478;23.756;2022-11-15T02:00:31;134.30;;;57.80;;
15194;SDS011;7698;42.478;23.756;2022-11-15T02:02:58;62.17;;;43.15;;
15194;SDS011;7698;42.478;23.756;2022-11-15T02:05:25;66.78;;;45.60;;
15194;SDS011;7698;42.478;23.756;2022-11-15T02:07:51;55.78;;;41.38;;
15194;SDS011;7698;42.478;23.756;2022-11-15T02:10:20;71.88;;;47.35;;
15194;SDS011;7698;42.478;23.756;2022-11-15T02:12:47;80.97;;;51.95;;
15194;SDS011;7698;42.478;23.756;2022-11-15T02:15:13;61.28;;;41.97;;
15194;SDS011;7698;42.478;23.756;2022-11-15T02:17:47;51.30;;;40.58;;
15194;SDS011;7698;42.478;23.756;2022-11-15T02:23:14;134.82;;;46.35;;
15194;SDS011;7698;42.478;23.756;2022-11-15T02:25:51;42.10;;;35.90;;
15194;SDS011;7698;42.478;23.756;2022-11-15T02:31:07;51.90;;;37.53;;
15194;SDS011;7698;42.478;23.756;2022-11-15T02:33:38;45.10;;;35.03;;
15194;SDS011;7698;42.478;23.756;2022-11-15T02:36:09;46.08;;;36.22;;
15194;SDS011;7698;42.478;23.756;2022-11-15T02:38:38;49.08;;;36.50;;
15194;SDS011;7698;42.478;23.756;2022-11-15T02:41:06;50.72;;;39.95;;
15194;SDS011;7698;42.478;23.756;2022-11-15T02:43:36;41.65;;;35.25;;
15194;SDS011;7698;42.478;23.756;2022-11-15T02:46:23;59.08;;;39.40;;
15194;SDS011;7698;42.478;23.756;2022-11-15T02:49:12;51.50;;;41.55;;
15194;SDS011;7698;42.478;23.756;2022-11-15T02:51:39;166.63;;;60.28;;
15194;SDS011;7698;42.478;23.756;2022-11-15T02:54:07;92.90;;;49.95;;
15194;SDS011;7698;42.478;23.756;2022-11-15T02:56:33;74.43;;;50.47;;
15194;SDS011;7698;42.478;23.756;2022-11-15T02:59:07;77.30;;;50.00;;
15194;SDS011;7698;42.478;23.756;2022-11-15T03:01:44;52.75;;;39.10;;
15194;SDS011;7698;42.478;23.756;2022-11-15T03:04:18;51.67;;;40.75;;
15194;SDS011;7698;42.478;23.756;2022-11-15T03:06:48;73.85;;;50.65;;
15194;SDS011;7698;42.478;23.756;2022-11-15T03:09:19;56.58;;;42.03;;
15194;SDS011;7698;42.478;23.756;2022-11-15T03:11:50;54.85;;;40.20;;
15194;SDS011;7698;42.478;23.756;2022-11-15T03:14:20;41.92;;;31.73;;
15194;SDS011;7698;42.478;23.756;2022-11-15T03:16:49;37.58;;;31.40;;
15194;SDS011;7698;42.478;23.756;2022-11-15T03:19:19;37.38;;;29.73;;
15194;SDS011;7698;42.478;23.756;2022-11-15T03:21:48;35.42;;;26.50;;
15194;SDS011;7698;42.478;23.756;2022-11-15T03:24:15;43.92;;;26.90;;
15194;SDS011;7698;42.478;23.756;2022-11-15T03:26:44;41.50;;;29.30;;
15194;SDS011;7698;42.478;23.756;2022-11-15T03:29:12;32.03;;;24.77;;
15194;SDS011;7698;42.478;23.756;2022-11-15T03:31:40;27.52;;;23.90;;
15194;SDS011;7698;42.478;23.756;2022-11-15T03:34:15;37.97;;;27.80;;
15194;SDS011;7698;42.478;23.756;2022-11-15T03:36:44;29.88;;;22.60;;
15194;SDS011;7698;42.478;23.756;2022-11-15T03:39:12;36.80;;;29.08;;
15194;SDS011;7698;42.478;23.756;2022-11-15T03:41:39;57.78;;;37.03;;
15194;SDS011;7698;42.478;23.756;2022-11-15T03:44:11;36.33;;;28.27;;
15194;SDS011;7698;42.478;23.756;2022-11-15T03:46:40;27.90;;;22.73;;
15194;SDS011;7698;42.478;23.756;2022-11-15T03:49:09;29.80;;;23.48;;
15194;SDS011;7698;42.478;23.756;2022-11-15T03:51:37;31.40;;;23.60;;
15194;SDS011;7698;42.478;23.756;2022-11-15T03:54:05;29.83;;;23.30;;
15194;SDS011;7698;42.478;23.756;2022-11-15T03:56:31;41.53;;;25.48;;
15194;SDS011;7698;42.478;23.756;2022-11-15T03:58:58;68.47;;;27.73;;
15194;SDS011;7698;42.478;23.756;2022-11-15T04:01:25;27.77;;;20.65;;
15194;SDS011;7698;42.478;23.756;2022-11-15T04:03:51;26.02;;;19.40;;
15194;SDS011;7698;42.478;23.756;2022-11-15T04:06:18;88.60;;;25.88;;
15194;SDS011;7698;42.478;23.756;2022-11-15T04:08:46;116.35;;;33.65;;
15194;SDS011;7698;42.478;23.756;2022-11-15T04:11:12;111.28;;;30.17;;
15194;SDS011;7698;42.478;23.756;2022-11-15T04:13:39;158.13;;;32.90;;
15194;SDS011;7698;42.478;23.756;2022-11-15T04:16:05;35.60;;;23.50;;
15194;SDS011;7698;42.478;23.756;2022-11-15T04:18:32;28.58;;;23.48;;
15194;SDS011;7698;42.478;23.756;2022-11-15T04:20:59;27.63;;;21.90;;
15194;SDS011;7698;42.478;23.756;2022-11-15T04:23:42;26.10;;;21.40;;
15194;SDS011;7698;42.478;23.756;2022-11-15T04:26:27;23.95;;;18.05;;
15194;SDS011;7698;42.478;23.756;2022-11-15T04:28:53;47.92;;;28.15;;
15194;SDS011;7698;42.478;23.756;2022-11-15T04:31:37;31.60;;;25.27;;
15194;SDS011;7698;42.478;23.756;2022-11-15T04:34:04;27.17;;;22.42;;
15194;SDS011;7698;42.478;23.756;2022-11-15T04:36:30;36.25;;;25.50;;
15194;SDS011;7698;42.478;23.756;2022-11-15T04:39:14;25.17;;;19.52;;
15194;SDS011;7698;42.478;23.756;2022-11-15T04:41:42;28.10;;;18.17;;
15194;SDS011;7698;42.478;23.756;2022-11-15T04:44:09;33.22;;;21.38;;
15194;SDS011;7698;42.478;23.756;2022-11-15T04:46:35;72.03;;;27.25;;
15194;SDS011;7698;42.478;23.756;2022-11-15T04:49:02;43.75;;;26.10;;
15194;SDS011;7698;42.478;23.756;2022-11-15T04:51:29;94.57;;;38.67;;
15194;SDS011;7698;42.478;23.756;2022-11-15T04:53:55;60.33;;;32.95;;
15194;SDS011;7698;42.478;23.756;2022-11-15T04:56:22;57.53;;;33.08;;
15194;SDS011;7698;42.478;23.756;2022-11-15T04:58:50;48.90;;;28.92;;
15194;SDS011;7698;42.478;23.756;2022-11-15T05:01:16;58.70;;;35.70;;
15194;SDS011;7698;42.478;23.756;2022-11-15T05:03:43;56.33;;;32.83;;
15194;SDS011;7698;42.478;23.756;2022-11-15T05:06:28;46.03;;;32.72;;
15194;SDS011;7698;42.478;23.756;2022-11-15T05:08:54;33.53;;;28.63;;
15194;SDS011;7698;42.478;23.756;2022-11-15T05:11:21;37.45;;;31.98;;
15194;SDS011;7698;42.478;23.756;2022-11-15T05:13:49;33.40;;;27.42;;
15194;SDS011;7698;42.478;23.756;2022-11-15T05:16:16;60.10;;;41.42;;
15194;SDS011;7698;42.478;23.756;2022-11-15T05:18:42;77.40;;;35.50;;
15194;SDS011;7698;42.478;23.756;2022-11-15T05:21:10;74.60;;;31.13;;
15194;SDS011;7698;42.478;23.756;2022-11-15T05:23:37;37.22;;;28.80;;
15194;SDS011;7698;42.478;23.756;2022-11-15T05:26:05;34.53;;;27.65;;
15194;SDS011;7698;42.478;23.756;2022-11-15T05:28:32;38.50;;;28.77;;
15194;SDS011;7698;42.478;23.756;2022-11-15T05:31:01;31.98;;;25.98;;
15194;SDS011;7698;42.478;23.756;2022-11-15T05:33:28;31.75;;;25.35;;
15194;SDS011;7698;42.478;23.756;2022-11-15T05:35:56;48.65;;;24.67;;
15194;SDS011;7698;42.478;23.756;2022-11-15T05:38:24;34.40;;;26.23;;
15194;SDS011;7698;42.478;23.756;2022-11-15T05:40:50;31.75;;;24.10;;
15194;SDS011;7698;42.478;23.756;2022-11-15T05:43:17;47.50;;;30.92;;
15194;SDS011;7698;42.478;23.756;2022-11-15T05:45:43;43.45;;;29.48;;
15194;SDS011;7698;42.478;23.756;2022-11-15T05:48:11;32.38;;;24.00;;
15194;SDS011;7698;42.478;23.756;2022-11-15T05:50:38;27.73;;;21.88;;
15194;SDS011;7698;42.478;23.756;2022-11-15T05:53:07;43.10;;;28.77;;
15194;SDS011;7698;42.478;23.756;2022-11-15T05:55:34;43.10;;;25.58;;
15194;SDS011;7698;42.478;23.756;2022-11-15T05:58:01;28.20;;;22.13;;
15194;SDS011;7698;42.478;23.756;2022-11-15T06:00:28;66.13;;;27.23;;
15194;SDS011;7698;42.478;23.756;2022-11-15T06:02:54;33.45;;;21.55;;
15194;SDS011;7698;42.478;23.756;2022-11-15T06:05:22;31.85;;;22.00;;
15194;SDS011;7698;42.478;23.756;2022-11-15T06:07:49;27.13;;;20.42;;
15194;SDS011;7698;42.478;23.756;2022-11-15T06:10:15;20.55;;;16.92;;
15194;SDS011;7698;42.478;23.756;2022-11-15T06:12:42;28.60;;;18.58;;
15194;SDS011;7698;42.478;23.756;2022-11-15T06:15:08;26.17;;;17.55;;
15194;SDS011;7698;42.478;23.756;2022-11-15T06:17:35;20.60;;;15.15;;
15194;SDS011;7698;42.478;23.756;2022-11-15T06:20:02;20.50;;;15.52;;
15194;SDS011;7698;42.478;23.756;2022-11-15T06:22:30;18.05;;;14.60;;
15194;SDS011;7698;42.478;23.756;2022-11-15T06:24:56;16.13;;;13.27;;
15194;SDS011;7698;42.478;23.756;2022-11-15T06:27:23;25.60;;;17.55;;
15194;SDS011;7698;42.478;23.756;2022-11-15T06:29:49;22.25;;;15.25;;
15194;SDS011;7698;42.478;23.756;2022-11-15T06:32:16;19.15;;;14.52;;
15194;SDS011;7698;42.478;23.756;2022-11-15T06:34:42;24.13;;;17.27;;
15194;SDS011;7698;42.478;23.756;2022-11-15T06:37:09;18.45;;;13.57;;
15194;SDS011;7698;42.478;23.756;2022-11-15T06:39:37;16.85;;;13.38;;
15194;SDS011;7698;42.478;23.756;2022-11-15T06:42:03;21.15;;;13.95;;
15194;SDS011;7698;42.478;23.756;2022-11-15T06:44:30;17.52;;;13.68;;
15194;SDS011;7698;42.478;23.756;2022-11-15T06:46:56;19.23;;;13.40;;
15194;SDS011;7698;42.478;23.756;2022-11-15T06:49:23;23.38;;;13.48;;
15194;SDS011;7698;42.478;23.756;2022-11-15T06:51:49;15.63;;;12.27;;
15194;SDS011;7698;42.478;23.756;2022-11-15T06:54:16;15.57;;;12.57;;
15194;SDS011;7698;42.478;23.756;2022-11-15T06:56:44;17.05;;;12.45;;
15194;SDS011;7698;42.478;23.756;2022-11-15T06:59:10;15.25;;;12.18;;
15194;SDS011;7698;42.478;23.756;2022-11-15T07:01:37;17.83;;;13.30;;
15194;SDS011;7698;42.478;23.756;2022-11-15T07:04:04;17.13;;;12.00;;
15194;SDS011;7698;42.478;23.756;2022-11-15T07:06:30;17.40;;;12.40;;
15194;SDS011;7698;42.478;23.756;2022-11-15T07:08:57;16.15;;;11.82;;
15194;SDS011;7698;42.478;23.756;2022-11-15T07:11:23;13.05;;;11.10;;
15194;SDS011;7698;42.478;23.756;2022-11-15T07:13:51;19.50;;;13.30;;
15194;SDS011;7698;42.478;23.756;2022-11-15T07:16:18;17.10;;;10.77;;
15194;SDS011;7698;42.478;23.756;2022-11-15T07:18:44;13.82;;;12.07;;
15194;SDS011;7698;42.478;23.756;2022-11-15T07:21:11;18.52;;;13.85;;
15194;SDS011;7698;42.478;23.756;2022-11-15T07:23:38;16.45;;;12.27;;
15194;SDS011;7698;42.478;23.756;2022-11-15T07:26:05;16.83;;;12.35;;
15194;SDS011;7698;42.478;23.756;2022-11-15T07:28:31;14.63;;;11.10;;
15194;SDS011;7698;42.478;23.756;2022-11-15T07:31:01;17.98;;;11.52;;
15194;SDS011;7698;42.478;23.756;2022-11-15T07:33:27;17.83;;;12.57;;
15194;SDS011;7698;42.478;23.756;2022-11-15T07:35:57;15.18;;;12.48;;
15194;SDS011;7698;42.478;23.756;2022-11-15T07:38:24;13.77;;;11.15;;
15194;SDS011;7698;42.478;23.756;2022-11-15T07:40:55;15.73;;;13.52;;
15194;SDS011;7698;42.478;23.756;2022-11-15T07:43:22;15.50;;;12.40;;
15194;SDS011;7698;42.478;23.756;2022-11-15T07:45:48;13.43;;;10.85;;
15194;SDS011;7698;42.478;23.756;2022-11-15T07:48:16;15.07;;;12.15;;
15194;SDS011;7698;42.478;23.756;2022-11-15T07:50:43;30.25;;;16.48;;
15194;SDS011;7698;42.478;23.756;2022-11-15T07:53:09;20.48;;;13.38;;
15194;SDS011;7698;42.478;23.756;2022-11-15T07:55:36;15.05;;;11.70;;
15194;SDS011;7698;42.478;23.756;2022-11-15T07:58:03;15.18;;;9.98;;
15194;SDS011;7698;42.478;23.756;2022-11-15T08:00:30;13.98;;;11.45;;
15194;SDS011;7698;42.478;23.756;2022-11-15T08:03:03;13.40;;;11.35;;
15194;SDS011;7698;42.478;23.756;2022-11-15T08:05:32;16.05;;;12.10;;
15194;SDS011;7698;42.478;23.756;2022-11-15T08:07:58;13.35;;;10.50;;
15194;SDS011;7698;42.478;23.756;2022-11-15T08:10:25;22.75;;;14.40;;
15194;SDS011;7698;42.478;23.756;2022-11-15T08:12:56;25.10;;;14.35;;
15194;SDS011;7698;42.478;23.756;2022-11-15T08:15:23;26.98;;;14.52;;
15194;SDS011;7698;42.478;23.756;2022-11-15T08:17:52;37.42;;;14.30;;
15194;SDS011;7698;42.478;23.756;2022-11-15T08:20:19;16.42;;;11.60;;
15194;SDS011;7698;42.478;23.756;2022-11-15T08:22:47;16.73;;;13.88;;
15194;SDS011;7698;42.478;23.756;2022-11-15T08:25:13;14.75;;;13.02;;
15194;SDS011;7698;42.478;23.756;2022-11-15T08:27:40;27.73;;;16.98;;
15194;SDS011;7698;42.478;23.756;2022-11-15T08:30:07;23.80;;;17.40;;
15194;SDS011;7698;42.478;23.756;2022-11-15T08:32:34;21.65;;;16.55;;
15194;SDS011;7698;42.478;23.756;2022-11-15T08:35:00;31.92;;;21.27;;
15194;SDS011;7698;42.478;23.756;2022-11-15T08:37:27;30.73;;;19.65;;
15194;SDS011;7698;42.478;23.756;2022-11-15T08:39:55;22.42;;;18.67;;
15194;SDS011;7698;42.478;23.756;2022-11-15T08:42:21;21.13;;;17.35;;
15194;SDS011;7698;42.478;23.756;2022-11-15T08:44:48;20.63;;;17.17;;
15194;SDS011;7698;42.478;23.756;2022-11-15T08:47:14;21.42;;;16.85;;
15194;SDS011;7698;42.478;23.756;2022-11-15T08:49:41;22.48;;;17.73;;
15194;SDS011;7698;42.478;23.756;2022-11-15T08:52:08;24.80;;;19.75;;
15194;SDS011;7698;42.478;23.756;2022-11-15T08:54:34;24.55;;;18.77;;
15194;SDS011;7698;42.478;23.756;2022-11-15T08:57:02;26.25;;;21.50;;
15194;SDS011;7698;42.478;23.756;2022-11-15T08:59:29;22.70;;;18.38;;
15194;SDS011;7698;42.478;23.756;2022-11-15T09:01:55;22.17;;;18.52;;
15194;SDS011;7698;42.478;23.756;2022-11-15T09:04:22;22.73;;;20.00;;
15194;SDS011;7698;42.478;23.756;2022-11-15T09:06:48;27.40;;;18.92;;
15194;SDS011;7698;42.478;23.756;2022-11-15T09:09:15;21.50;;;16.88;;
15194;SDS011;7698;42.478;23.756;2022-11-15T09:11:41;17.88;;;15.98;;
15194;SDS011;7698;42.478;23.756;2022-11-15T09:14:11;19.98;;;15.93;;
15194;SDS011;7698;42.478;23.756;2022-11-15T09:16:38;18.30;;;15.48;;
15194;SDS011;7698;42.478;23.756;2022-11-15T09:19:04;21.05;;;17.38;;
15194;SDS011;7698;42.478;23.756;2022-11-15T09:21:31;21.67;;;17.40;;
15194;SDS011;7698;42.478;23.756;2022-11-15T09:23:57;20.30;;;17.23;;
15194;SDS011;7698;42.478;23.756;2022-11-15T09:26:24;22.20;;;18.02;;
15194;SDS011;7698;42.478;23.756;2022-11-15T09:28:51;21.70;;;16.00;;
15194;SDS011;7698;42.478;23.756;2022-11-15T09:31:18;18.52;;;14.45;;
15194;SDS011;7698;42.478;23.756;2022-11-15T09:33:45;19.85;;;15.90;;
15194;SDS011;7698;42.478;23.756;2022-11-15T09:36:12;25.25;;;21.70;;
15194;SDS011;7698;42.478;23.756;2022-11-15T09:38:39;23.90;;;20.10;;
15194;SDS011;7698;42.478;23.756;2022-11-15T09:41:13;26.58;;;20.73;;
15194;SDS011;7698;42.478;23.756;2022-11-15T09:43:42;30.00;;;21.05;;
15194;SDS011;7698;42.478;23.756;2022-11-15T09:46:13;24.52;;;20.15;;
15194;SDS011;7698;42.478;23.756;2022-11-15T09:48:48;23.85;;;19.45;;
15194;SDS011;7698;42.478;23.756;2022-11-15T09:51:18;23.88;;;19.58;;
15194;SDS011;7698;42.478;23.756;2022-11-15T09:53:48;21.40;;;19.10;;
15194;SDS011;7698;42.478;23.756;2022-11-15T09:56:19;21.75;;;17.92;;
15194;SDS011;7698;42.478;23.756;2022-11-15T09:58:47;27.33;;;18.80;;
15194;SDS011;7698;42.478;23.756;2022-11-15T10:01:18;24.00;;;18.70;;
15194;SDS011;7698;42.478;23.756;2022-11-15T10:03:46;21.58;;;17.77;;
15194;SDS011;7698;42.478;23.756;2022-11-15T10:06:16;22.08;;;18.35;;
15194;SDS011;7698;42.478;23.756;2022-11-15T10:08:48;19.20;;;15.25;;
15194;SDS011;7698;42.478;23.756;2022-11-15T10:11:17;19.20;;;16.08;;
15194;SDS011;7698;42.478;23.756;2022-11-15T10:13:46;21.77;;;18.60;;
15194;SDS011;7698;42.478;23.756;2022-11-15T10:16:18;21.05;;;18.42;;
15194;SDS011;7698;42.478;23.756;2022-11-15T10:18:50;21.98;;;17.42;;
15194;SDS011;7698;42.478;23.756;2022-11-15T10:21:21;23.90;;;18.90;;
15194;SDS011;7698;42.478;23.756;2022-11-15T10:23:49;21.48;;;17.45;;
15194;SDS011;7698;42.478;23.756;2022-11-15T10:26:16;23.60;;;19.02;;
15194;SDS011;7698;42.478;23.756;2022-11-15T10:28:43;24.27;;;19.33;;
15194;SDS011;7698;42.478;23.756;2022-11-15T10:31:20;24.27;;;20.33;;
15194;SDS011;7698;42.478;23.756;2022-11-15T10:33:47;25.20;;;19.88;;
15194;SDS011;7698;42.478;23.756;2022-11-15T10:36:15;23.95;;;20.00;;
15194;SDS011;7698;42.478;23.756;2022-11-15T10:38:53;24.08;;;20.42;;
15194;SDS011;7698;42.478;23.756;2022-11-15T10:41:20;24.48;;;21.08;;
15194;SDS011;7698;42.478;23.756;2022-11-15T10:44:02;26.15;;;20.75;;
15194;SDS011;7698;42.478;23.756;2022-11-15T10:46:29;26.33;;;22.30;;
15194;SDS011;7698;42.478;23.756;2022-11-15T10:49:01;26.65;;;22.13;;
15194;SDS011;7698;42.478;23.756;2022-11-15T10:51:40;27.65;;;22.02;;
15194;SDS011;7698;42.478;23.756;2022-11-15T10:54:09;26.13;;;22.20;;
15194;SDS011;7698;42.478;23.756;2022-11-15T10:56:36;25.52;;;21.23;;
15194;SDS011;7698;42.478;23.756;2022-11-15T10:59:03;23.90;;;20.48;;
15194;SDS011;7698;42.478;23.756;2022-11-15T11:01:30;30.67;;;24.70;;
15194;SDS011;7698;42.478;23.756;2022-11-15T11:04:00;27.95;;;22.10;;
15194;SDS011;7698;42.478;23.756;2022-11-15T11:06:27;30.80;;;26.13;;
15194;SDS011;7698;42.478;23.756;2022-11-15T11:08:54;25.35;;;22.38;;
15194;SDS011;7698;42.478;23.756;2022-11-15T11:11:23;26.38;;;22.85;;
15194;SDS011;7698;42.478;23.756;2022-11-15T11:13:49;25.63;;;22.33;;
15194;SDS011;7698;42.478;23.756;2022-11-15T11:16:21;25.35;;;20.73;;
15194;SDS011;7698;42.478;23.756;2022-11-15T11:18:51;25.75;;;22.25;;
15194;SDS011;7698;42.478;23.756;2022-11-15T11:21:22;26.77;;;21.85;;
15194;SDS011;7698;42.478;23.756;2022-11-15T11:23:52;22.27;;;19.20;;
15194;SDS011;7698;42.478;23.756;2022-11-15T11:26:29;22.67;;;19.15;;
15194;SDS011;7698;42.478;23.756;2022-11-15T11:29:00;25.95;;;21.77;;
15194;SDS011;7698;42.478;23.756;2022-11-15T11:31:29;20.10;;;18.00;;
15194;SDS011;7698;42.478;23.756;2022-11-15T11:34:00;24.15;;;20.15;;
15194;SDS011;7698;42.478;23.756;2022-11-15T11:36:32;22.58;;;19.95;;
15194;SDS011;7698;42.478;23.756;2022-11-15T11:39:06;26.05;;;23.25;;
15194;SDS011;7698;42.478;23.756;2022-11-15T11:41:43;24.02;;;21.40;;
15194;SDS011;7698;42.478;23.756;2022-11-15T11:44:17;25.30;;;21.27;;
15194;SDS011;7698;42.478;23.756;2022-11-15T11:46:48;22.15;;;19.48;;
15194;SDS011;7698;42.478;23.756;2022-11-15T11:49:16;20.38;;;18.13;;
15194;SDS011;7698;42.478;23.756;2022-11-15T11:51:45;25.00;;;21.63;;
15194;SDS011;7698;42.478;23.756;2022-11-15T11:54:14;25.83;;;22.58;;
15194;SDS011;7698;42.478;23.756;2022-11-15T11:56:44;25.15;;;21.73;;
15194;SDS011;7698;42.478;23.756;2022-11-15T11:59:14;21.35;;;19.08;;
15194;SDS011;7698;42.478;23.756;2022-11-15T12:01:43;25.70;;;22.15;;
15194;SDS011;7698;42.478;23.756;2022-11-15T12:04:11;23.58;;;21.02;;
15194;SDS011;7698;42.478;23.756;2022-11-15T12:06:41;24.88;;;22.30;;
15194;SDS011;7698;42.478;23.756;2022-11-15T12:09:12;25.77;;;22.17;;
15194;SDS011;7698;42.478;23.756;2022-11-15T12:11:42;23.08;;;20.55;;
15194;SDS011;7698;42.478;23.756;2022-11-15T12:14:12;22.75;;;20.35;;
15194;SDS011;7698;42.478;23.756;2022-11-15T12:16:43;24.58;;;21.98;;
15194;SDS011;7698;42.478;23.756;2022-11-15T12:19:10;21.83;;;19.63;;
15194;SDS011;7698;42.478;23.756;2022-11-15T12:21:39;23.70;;;21.25;;
15194;SDS011;7698;42.478;23.756;2022-11-15T12:24:07;22.70;;;20.40;;
15194;SDS011;7698;42.478;23.756;2022-11-15T12:26:35;20.70;;;18.63;;
15194;SDS011;7698;42.478;23.756;2022-11-15T12:29:04;21.75;;;19.52;;
15194;SDS011;7698;42.478;23.756;2022-11-15T12:31:35;21.17;;;19.08;;
15194;SDS011;7698;42.478;23.756;2022-11-15T12:34:03;20.55;;;18.42;;
15194;SDS011;7698;42.478;23.756;2022-11-15T12:36:34;21.08;;;18.95;;
15194;SDS011;7698;42.478;23.756;2022-11-15T12:39:01;21.40;;;19.25;;
15194;SDS011;7698;42.478;23.756;2022-11-15T12:41:29;20.30;;;18.00;;
15194;SDS011;7698;42.478;23.756;2022-11-15T12:43:56;24.63;;;22.10;;
15194;SDS011;7698;42.478;23.756;2022-11-15T12:49:11;23.73;;;21.48;;
15194;SDS011;7698;42.478;23.756;2022-11-15T13:02:56;21.42;;;19.23;;
15194;SDS011;7698;42.478;23.756;2022-11-15T13:06:02;21.55;;;19.45;;
15194;SDS011;7698;42.478;23.756;2022-11-15T13:08:39;20.05;;;17.95;;
15194;SDS011;7698;42.478;23.756;2022-11-15T13:13:51;19.38;;;17.48;;
15194;SDS011;7698;42.478;23.756;2022-11-15T13:16:18;21.40;;;19.30;;
15194;SDS011;7698;42.478;23.756;2022-11-15T13:18:52;20.63;;;18.50;;
15194;SDS011;7698;42.478;23.756;2022-11-15T13:21:21;18.95;;;17.05;;
15194;SDS011;7698;42.478;23.756;2022-11-15T13:24:10;18.70;;;16.90;;
15194;SDS011;7698;42.478;23.756;2022-11-15T13:26:38;20.33;;;18.38;;
15194;SDS011;7698;42.478;23.756;2022-11-15T13:29:12;21.65;;;19.38;;
15194;SDS011;7698;42.478;23.756;2022-11-15T13:31:41;21.63;;;19.33;;
15194;SDS011;7698;42.478;23.756;2022-11-15T13:36:59;20.00;;;18.10;;
15194;SDS011;7698;42.478;23.756;2022-11-15T13:39:27;18.83;;;16.98;;
15194;SDS011;7698;42.478;23.756;2022-11-15T13:41:54;23.10;;;18.42;;
15194;SDS011;7698;42.478;23.756;2022-11-15T13:44:21;20.70;;;18.70;;
15194;SDS011;7698;42.478;23.756;2022-11-15T13:46:48;19.98;;;18.05;;
15194;SDS011;7698;42.478;23.756;2022-11-15T13:49:15;20.80;;;18.73;;
15194;SDS011;7698;42.478;23.756;2022-11-15T13:51:42;20.52;;;18.55;;
15194;SDS011;7698;42.478;23.756;2022-11-15T13:54:14;20.52;;;18.52;;
15194;SDS011;7698;42.478;23.756;2022-11-15T13:56:42;20.95;;;18.77;;
15194;SDS011;7698;42.478;23.756;2022-11-15T13:59:10;22.65;;;20.45;;
15194;SDS011;7698;42.478;23.756;2022-11-15T14:01:40;21.15;;;19.05;;
15194;SDS011;7698;42.478;23.756;2022-11-15T14:04:10;22.92;;;20.70;;
15194;SDS011;7698;42.478;23.756;2022-11-15T14:06:43;21.25;;;19.05;;
15194;SDS011;7698;42.478;23.756;2022-11-15T14:12:23;22.17;;;20.02;;
15194;SDS011;7698;42.478;23.756;2022-11-15T14:14:50;23.20;;;20.80;;
15194;SDS011;7698;42.478;23.756;2022-11-15T14:17:19;27.52;;;24.63;;
15194;SDS011;7698;42.478;23.756;2022-11-15T14:19:46;27.52;;;24.77;;
15194;SDS011;7698;42.478;23.756;2022-11-15T14:22:17;26.90;;;24.20;;
15194;SDS011;7698;42.478;23.756;2022-11-15T14:24:46;25.85;;;23.10;;
15194;SDS011;7698;42.478;23.756;2022-11-15T14:27:16;24.58;;;21.90;;
15194;SDS011;7698;42.478;23.756;2022-11-15T14:29:44;31.73;;;28.20;;
15194;SDS011;7698;42.478;23.756;2022-11-15T14:32:13;29.08;;;25.20;;
15194;SDS011;7698;42.478;23.756;2022-11-15T14:34:40;24.02;;;21.58;;
15194;SDS011;7698;42.478;23.756;2022-11-15T14:37:10;24.23;;;21.55;;
15194;SDS011;7698;42.478;23.756;2022-11-15T14:39:42;24.35;;;21.48;;
15194;SDS011;7698;42.478;23.756;2022-11-15T14:42:09;25.05;;;22.50;;
15194;SDS011;7698;42.478;23.756;2022-11-15T14:44:36;23.60;;;20.90;;
15194;SDS011;7698;42.478;23.756;2022-11-15T14:47:04;23.05;;;20.65;;
15194;SDS011;7698;42.478;23.756;2022-11-15T14:49:30;22.42;;;20.02;;
15194;SDS011;7698;42.478;23.756;2022-11-15T14:51:57;22.60;;;20.15;;
15194;SDS011;7698;42.478;23.756;2022-11-15T14:54:23;21.17;;;18.98;;
15194;SDS011;7698;42.478;23.756;2022-11-15T14:56:50;23.40;;;20.92;;